Time,TemperatureF,DewpointF,PressureIn,WindDirection,WindDirectionDegrees,WindSpeedMPH,WindSpeedGustMPH,Humidity,HourlyPrecipIn,Conditions,Clouds,dailyrainin,SolarRadiationWatts/m^2,SoftwareType,DateUTC
2013-09-18 00:02:00,59.0,59.0,-100.00,North,10,5.0,13.0,99,0.09,,,0.63,0.000000,,2013-09-18 06:02:00,
2013-09-18 00:12:00,59.0,59.0,-100.00,North,10,5.0,13.0,99,0.09,,,0.63,0.000000,,2013-09-18 06:12:00,
2013-09-18 00:22:00,59.0,59.0,-100.00,North,10,5.0,13.0,99,0.09,,,0.63,0.000000,,2013-09-18 06:22:00,
2013-09-18 00:52:00,59.0,59.0,-100.00,North,5,4.0,11.0,99,0.00,,,0.63,0.000000,,2013-09-18 06:52:00,
2013-09-18 01:01:00,59.0,59.0,-100.00,North,5,4.0,11.0,99,0.00,,,0.63,0.000000,,2013-09-18 07:01:00,
2013-09-18 01:12:00,59.0,59.0,-100.00,North,5,4.0,11.0,99,0.00,,,0.63,0.000000,,2013-09-18 07:12:00,
2013-09-18 01:22:00,59.0,59.0,-100.00,North,5,4.0,11.0,99,0.00,,,0.63,0.000000,,2013-09-18 07:22:00,
2013-09-18 01:52:00,59.0,59.0,-100.00,NNE,18,2.0,12.0,99,0.00,,,0.63,0.000000,,2013-09-18 07:52:00,
2013-09-18 02:02:00,59.0,59.0,-100.00,NNE,18,2.0,12.0,99,0.00,,,0.63,0.000000,,2013-09-18 08:02:00,
2013-09-18 02:12:00,59.0,59.0,-100.00,NNE,18,2.0,12.0,99,0.00,,,0.63,0.000000,,2013-09-18 08:12:00,
2013-09-18 02:22:00,59.0,59.0,-100.00,NNE,18,2.0,12.0,99,0.00,,,0.63,0.000000,,2013-09-18 08:22:00,
2013-09-18 02:52:00,56.0,56.0,-100.00,South,185,1.0,6.0,99,0.00,,,0.63,0.000000,,2013-09-18 08:52:00,
2013-09-18 03:02:00,56.0,56.0,-100.00,South,185,1.0,6.0,99,0.00,,,0.63,0.000000,,2013-09-18 09:02:00,
2013-09-18 03:12:00,56.0,56.0,-100.00,South,185,1.0,6.0,99,0.00,,,0.63,0.000000,,2013-09-18 09:12:00,
2013-09-18 03:22:00,56.0,56.0,-100.00,South,185,1.0,6.0,99,0.00,,,0.63,0.000000,,2013-09-18 09:22:00,
2013-09-18 03:53:00,59.0,59.0,-100.00,SW,223,4.0,11.0,99,0.00,,,0.63,0.000000,,2013-09-18 09:53:00,
2013-09-18 04:03:00,59.0,59.0,-100.00,SW,223,4.0,11.0,99,0.00,,,0.63,0.000000,,2013-09-18 10:03:00,
2013-09-18 04:13:00,59.0,59.0,-100.00,SW,223,4.0,11.0,99,0.00,,,0.63,0.000000,,2013-09-18 10:13:00,
2013-09-18 04:23:00,59.0,59.0,-100.00,SW,223,4.0,11.0,99,0.00,,,0.63,0.000000,,2013-09-18 10:23:00,
2013-09-18 04:53:00,59.0,58.0,-100.00,South,186,3.0,9.0,96,0.00,,,-99.99,0.000000,,2013-09-18 10:53:00,
2013-09-18 05:02:00,59.0,58.0,-100.00,South,186,3.0,9.0,96,0.00,,,-99.99,0.000000,,2013-09-18 11:02:00,
2013-09-18 05:12:00,59.0,58.0,-100.00,South,186,3.0,9.0,96,0.00,,,-99.99,0.000000,,2013-09-18 11:12:00,
2013-09-18 05:22:00,59.0,58.0,-100.00,South,186,3.0,9.0,96,0.00,,,-99.99,0.000000,,2013-09-18 11:22:00,
2013-09-18 05:52:00,57.0,57.0,-100.00,South,171,3.0,7.0,99,0.00,,,-99.99,0.000000,,2013-09-18 11:52:00,
2013-09-18 06:01:00,57.0,57.0,-100.00,South,171,3.0,7.0,99,0.00,,,-99.99,0.000000,,2013-09-18 12:01:00,
2013-09-18 06:12:00,57.0,57.0,-100.00,South,171,3.0,7.0,99,0.00,,,-99.99,0.000000,,2013-09-18 12:12:00,
2013-09-18 06:22:00,57.0,57.0,-100.00,South,171,3.0,7.0,99,0.00,,,-99.99,0.000000,,2013-09-18 12:22:00,
2013-09-18 06:52:00,59.0,58.0,-100.00,WSW,243,4.0,10.0,97,0.00,,,0.63,0.000000,,2013-09-18 12:52:00,
2013-09-18 07:02:00,59.0,58.0,-100.00,WSW,243,4.0,10.0,97,0.00,,,0.63,0.000000,,2013-09-18 13:02:00,
2013-09-18 07:11:00,59.0,58.0,-100.00,WSW,243,4.0,10.0,97,0.00,,,0.63,0.000000,,2013-09-18 13:11:00,
2013-09-18 21:24:00,60.0,50.0,-100.00,WNW,285,6.0,16.0,69,0.00,,,0.29,0.000000,,2013-09-19 03:24:00,
2013-09-18 22:01:00,60.0,50.0,-100.00,WNW,285,6.0,16.0,69,0.00,,,0.29,0.000000,,2013-09-19 04:01:00,
2013-09-18 22:14:00,60.0,50.0,-100.00,WNW,285,6.0,16.0,69,0.00,,,0.29,0.000000,,2013-09-19 04:14:00,
2013-09-18 22:54:00,57.0,48.0,-100.00,WNW,287,7.0,15.0,72,0.00,,,0.09,0.000000,,2013-09-19 04:54:00,
2013-09-18 23:03:00,57.0,48.0,-100.00,WNW,287,7.0,15.0,72,0.00,,,0.09,0.000000,,2013-09-19 05:03:00,
2013-09-18 23:13:00,57.0,48.0,-100.00,WNW,287,7.0,15.0,72,0.00,,,0.09,0.000000,,2013-09-19 05:13:00,
2013-09-18 23:23:00,57.0,48.0,-100.00,WNW,287,7.0,15.0,72,0.00,,,0.09,0.000000,,2013-09-19 05:23:00,
2013-09-18 23:52:00,52.0,47.0,-100.00,West,260,3.0,13.0,83,0.00,,,0.00,0.000000,,2013-09-19 05:52:00,